Time;durP1;ratioP1;P1;durP2;ratioP2;P2;SDS_P1;SDS_P2;PMS_P1;PMS_P2;Temp;Humidity;BMP_temperature;BMP_pressure;BME280_temperature;BME280_humidity;BME280_pressure;Samples;Min_cycle;Max_cycle;Signal;HPM_P1;HPM_P2
2023/02/24 00:01:24;;;;;;;138.50;70.25;;;8.60;99.90;;;;;;5006910;28;20057;-76
2023/02/24 00:03:58;;;;;;;139.57;70.63;;;8.60;99.90;;;;;;5010871;28;20065;-76
2023/02/24 00:06:25;;;;;;;130.40;67.95;;;8.50;99.90;;;;;;5028161;28;20029;-76
2023/02/24 00:08:52;;;;;;;133.15;69.90;;;8.60;99.90;;;;;;5032586;28;20025;-77
2023/02/24 00:11:18;;;;;;;130.75;69.57;;;8.50;99.90;;;;;;5014516;28;20385;-76
2023/02/24 00:13:47;;;;;;;138.82;69.25;;;8.60;99.90;;;;;;5014850;28;20034;-76
2023/02/24 00:16:16;;;;;;;131.30;68.95;;;8.60;99.90;;;;;;5032627;28;20029;-77
2023/02/24 00:18:43;;;;;;;126.53;66.28;;;8.60;99.90;;;;;;5032924;28;20013;-77
2023/02/24 00:21:14;;;;;;;134.68;69.55;;;8.60;99.90;;;;;;5032569;28;20025;-76
2023/02/24 00:23:42;;;;;;;137.63;68.68;;;8.60;99.90;;;;;;5032568;28;20029;-76
2023/02/24 00:26:10;;;;;;;132.07;66.65;;;8.60;99.90;;;;;;5032124;28;20378;-76
2023/02/24 00:28:36;;;;;;;119.88;65.53;;;8.60;99.90;;;;;;5032548;28;20033;-76
2023/02/24 00:31:15;;;;;;;129.63;65.50;;;8.70;99.90;;;;;;5030457;28;20029;-76
2023/02/24 00:33:44;;;;;;;122.88;64.78;;;8.70;99.90;;;;;;5031520;28;20052;-76
2023/02/24 00:36:22;;;;;;;130.90;68.30;;;8.70;99.90;;;;;;5029059;28;20097;-76
2023/02/24 00:38:56;;;;;;;126.20;64.50;;;8.70;99.90;;;;;;5031969;28;20018;-76
2023/02/24 00:41:28;;;;;;;125.25;65.13;;;8.70;99.90;;;;;;5029234;28;20108;-76
2023/02/24 00:44:04;;;;;;;114.07;62.83;;;8.80;99.90;;;;;;5014643;28;20052;-76
2023/02/24 00:46:35;;;;;;;115.38;63.25;;;8.80;99.90;;;;;;5029394;28;20021;-76
2023/02/24 00:49:04;;;;;;;116.70;60.75;;;8.80;99.90;;;;;;5007121;28;20056;-76
2023/02/24 00:51:34;;;;;;;120.22;62.95;;;8.80;99.90;;;;;;5028190;28;20075;-76
2023/02/24 00:54:01;;;;;;;114.97;61.65;;;8.80;99.90;;;;;;5014657;28;20381;-76
2023/02/24 00:56:28;;;;;;;109.40;59.60;;;8.80;99.90;;;;;;5031931;28;20025;-77
2023/02/24 00:58:55;;;;;;;116.10;61.00;;;8.80;99.90;;;;;;5031754;28;20095;-77
2023/02/24 01:01:23;;;;;;;120.75;62.05;;;8.80;99.90;;;;;;5009151;28;20152;-77
2023/02/24 01:03:50;;;;;;;111.55;58.70;;;8.90;99.90;;;;;;5011586;28;20116;-76
2023/02/24 01:06:19;;;;;;;110.03;60.28;;;8.90;99.90;;;;;;5014156;28;20538;-77
2023/02/24 01:08:47;;;;;;;119.72;61.53;;;8.90;99.90;;;;;;5028529;28;20469;-77
2023/02/24 01:13:59;;;;;;;109.60;58.38;;;8.90;99.90;;;;;;5029457;28;20652;-76
2023/02/24 01:16:25;;;;;;;110.15;57.05;;;8.90;99.90;;;;;;5031926;28;20469;-76
2023/02/24 01:18:50;;;;;;;104.53;58.08;;;8.90;99.90;;;;;;5014326;28;20079;-76
2023/02/24 01:21:18;;;;;;;108.53;56.53;;;8.90;99.90;;;;;;5032424;28;20030;-77
2023/02/24 01:23:53;;;;;;;108.53;55.75;;;8.90;99.90;;;;;;5032838;28;20498;-76
2023/02/24 01:26:20;;;;;;;100.15;55.13;;;8.80;99.90;;;;;;5014149;28;20029;-76
2023/02/24 01:28:46;;;;;;;103.93;55.70;;;8.80;99.90;;;;;;5031895;28;20033;-76
2023/02/24 01:31:16;;;;;;;100.95;53.95;;;8.80;99.90;;;;;;5029360;28;20026;-77
2023/02/24 01:33:44;;;;;;;109.40;55.10;;;8.80;99.90;;;;;;5027812;28;20465;-77
2023/02/24 01:36:16;;;;;;;109.13;57.55;;;8.80;99.90;;;;;;5015437;28;20021;-77
2023/02/24 01:38:42;;;;;;;111.30;58.20;;;8.80;99.90;;;;;;5035678;28;20075;-77
2023/02/24 01:41:15;;;;;;;105.13;56.67;;;8.80;99.90;;;;;;5035285;28;20512;-76
2023/02/24 01:44:00;;;;;;;100.72;55.65;;;8.80;99.90;;;;;;5032071;28;20025;-76
2023/02/24 01:46:34;;;;;;;100.60;54.95;;;8.80;99.90;;;;;;5027993;28;20377;-76
2023/02/24 01:49:16;;;;;;;100.38;54.15;;;8.80;99.90;;;;;;5035685;28;20079;-76
2023/02/24 01:51:50;;;;;;;101.22;54.08;;;8.80;99.90;;;;;;5032796;28;20021;-77
2023/02/24 01:54:24;;;;;;;94.85;51.67;;;8.80;99.90;;;;;;5035187;28;20397;-76
2023/02/24 01:56:51;;;;;;;100.95;54.90;;;8.80;99.90;;;;;;5035278;28;20033;-76
2023/02/24 01:59:19;;;;;;;103.00;55.08;;;8.80;99.90;;;;;;5034877;28;20073;-76
2023/02/24 02:01:47;;;;;;;101.85;53.67;;;8.80;99.90;;;;;;5033271;28;20076;-76
2023/02/24 02:04:19;;;;;;;104.45;57.53;;;8.80;99.90;;;;;;5035071;28;20049;-76
2023/02/24 02:06:45;;;;;;;109.05;57.10;;;8.80;99.90;;;;;;5035212;28;20033;-76
2023/02/24 02:09:14;;;;;;;108.57;56.85;;;8.80;99.90;;;;;;5025070;28;20022;-76
2023/02/24 02:11:40;;;;;;;112.97;57.45;;;8.80;99.90;;;;;;5035147;28;20428;-76
2023/02/24 02:14:06;;;;;;;105.82;56.40;;;8.80;99.90;;;;;;5034878;28;20017;-77
2023/02/24 02:17:11;;;;;;;102.30;55.00;;;8.80;99.90;;;;;;5034935;28;20017;-77
2023/02/24 02:20:14;;;;;;;114.32;56.83;;;8.80;99.90;;;;;;5004362;28;20069;-76
2023/02/24 02:23:11;;;;;;;111.18;58.95;;;8.80;99.90;;;;;;5030185;28;20026;-77
2023/02/24 02:26:25;;;;;;;114.60;61.00;;;8.80;99.90;;;;;;5028534;28;20034;-77
2023/02/24 02:29:12;;;;;;;112.25;60.60;;;8.70;99.90;;;;;;5002552;28;20069;-77
2023/02/24 02:31:40;;;;;;;127.25;64.00;;;8.70;99.90;;;;;;5032191;28;20033;-76
2023/02/24 02:34:18;;;;;;;114.72;60.50;;;8.70;99.90;;;;;;5035047;28;20481;-77
2023/02/24 02:36:53;;;;;;;121.10;59.28;;;8.70;99.90;;;;;;5027710;28;20035;-77
2023/02/24 02:39:42;;;;;;;113.38;59.00;;;8.70;99.90;;;;;;5025992;28;20113;-77
2023/02/24 02:42:25;;;;;;;117.50;61.45;;;8.80;99.90;;;;;;5033798;28;20120;-77
2023/02/24 02:45:05;;;;;;;115.45;61.28;;;8.70;99.90;;;;;;5033866;28;20109;-76
2023/02/24 02:47:52;;;;;;;122.95;62.63;;;8.70;99.90;;;;;;5031756;28;20104;-76
2023/02/24 02:50:34;;;;;;;125.93;63.60;;;8.70;99.90;;;;;;5014101;28;20187;-77
2023/02/24 02:53:08;;;;;;;122.85;61.67;;;8.70;99.90;;;;;;5013029;28;20493;-76
2023/02/24 02:55:44;;;;;;;116.15;60.05;;;8.70;99.90;;;;;;5034233;28;20309;-77
2023/02/24 02:58:15;;;;;;;113.78;61.85;;;8.70;99.90;;;;;;5030813;28;20026;-77
2023/02/24 03:01:00;;;;;;;117.80;61.25;;;8.70;99.90;;;;;;5030159;28;20029;-77
2023/02/24 03:03:41;;;;;;;120.22;60.10;;;8.70;99.90;;;;;;5031359;28;20045;-77
2023/02/24 03:06:21;;;;;;;117.53;60.58;;;8.70;99.90;;;;;;5027823;28;20029;-77
2023/02/24 03:09:11;;;;;;;119.97;61.63;;;8.70;99.90;;;;;;5016334;28;20027;-77
2023/02/24 03:11:41;;;;;;;129.38;65.18;;;8.70;99.90;;;;;;5030215;28;20039;-77
2023/02/24 03:14:11;;;;;;;121.80;65.32;;;8.70;99.90;;;;;;5033876;28;20034;-77
2023/02/24 03:16:40;;;;;;;124.30;61.78;;;8.70;99.90;;;;;;5015897;28;20026;-76
2023/02/24 03:19:09;;;;;;;119.25;60.15;;;8.70;99.90;;;;;;5030452;28;20033;-76
2023/02/24 03:21:45;;;;;;;115.00;62.63;;;8.70;99.90;;;;;;5024773;28;20091;-76
2023/02/24 03:24:11;;;;;;;109.63;60.35;;;8.70;99.90;;;;;;5029926;28;20083;-76
2023/02/24 03:27:19;;;;;;;121.07;65.05;;;8.80;99.90;;;;;;5033627;28;20396;-76
2023/02/24 03:30:17;;;;;;;118.65;63.83;;;8.70;99.90;;;;;;4956718;28;20391;-77
2023/02/24 03:32:55;;;;;;;114.50;60.90;;;8.80;99.90;;;;;;4989284;28;20501;-77
2023/02/24 03:35:28;;;;;;;121.13;63.03;;;8.70;99.90;;;;;;5008375;28;20033;-76
2023/02/24 03:37:58;;;;;;;115.10;61.45;;;8.70;99.90;;;;;;5015582;28;20064;-77
2023/02/24 03:40:32;;;;;;;119.13;60.60;;;8.70;99.90;;;;;;5033073;28;20030;-77
2023/02/24 03:43:16;;;;;;;117.03;60.88;;;8.70;99.90;;;;;;5033277;28;20017;-76
2023/02/24 03:45:42;;;;;;;121.28;64.15;;;8.80;99.90;;;;;;5030290;28;20013;-76
2023/02/24 03:48:10;;;;;;;120.93;65.45;;;8.70;99.90;;;;;;5033160;28;20024;-76
2023/02/24 03:50:39;;;;;;;124.47;65.03;;;8.70;99.90;;;;;;5032902;28;20017;-77
2023/02/24 03:53:10;;;;;;;118.88;63.53;;;8.70;99.90;;;;;;5033154;28;20029;-76
2023/02/24 03:56:02;;;;;;;125.18;65.35;;;8.70;99.90;;;;;;5033171;28;20060;-76
2023/02/24 03:59:24;;;;;;;115.25;62.67;;;8.70;99.90;;;;;;5031649;28;20298;-76
2023/02/24 04:01:56;;;;;;;120.88;63.67;;;8.70;99.90;;;;;;4983635;28;20490;-76
2023/02/24 04:04:44;;;;;;;115.72;62.38;;;8.70;99.90;;;;;;5023988;28;20056;-77
2023/02/24 04:07:25;;;;;;;121.13;61.92;;;8.70;99.90;;;;;;5030380;28;20588;-76
2023/02/24 04:10:26;;;;;;;122.05;64.25;;;8.60;99.90;;;;;;5029631;28;20025;-76
2023/02/24 04:13:03;;;;;;;119.68;62.53;;;8.70;99.90;;;;;;4990942;28;20045;-76
2023/02/24 04:15:39;;;;;;;117.90;63.13;;;8.60;99.90;;;;;;5029859;28;20033;-77
2023/02/24 04:18:16;;;;;;;111.50;59.33;;;8.60;99.90;;;;;;5032614;28;20029;-76
2023/02/24 04:20:44;;;;;;;122.45;63.88;;;8.60;99.90;;;;;;5032568;28;20025;-77
2023/02/24 04:23:16;;;;;;;119.80;64.13;;;8.60;99.90;;;;;;5032644;28;20493;-77
2023/02/24 04:25:47;;;;;;;123.35;63.97;;;8.60;99.90;;;;;;5029341;28;20120;-77
2023/02/24 04:28:17;;;;;;;128.13;64.10;;;8.60;99.90;;;;;;5014366;28;20033;-77
2023/02/24 04:30:51;;;;;;;122.65;64.63;;;8.50;99.90;;;;;;5028828;28;20025;-76
2023/02/24 04:33:17;;;;;;;130.00;65.32;;;8.50;99.90;;;;;;5024717;28;20030;-77
2023/02/24 04:35:52;;;;;;;123.15;63.70;;;8.40;99.90;;;;;;5014612;28;20458;-76
2023/02/24 04:38:18;;;;;;;123.32;61.72;;;8.40;99.90;;;;;;5029507;28;20037;-76
2023/02/24 04:40:48;;;;;;;119.55;61.75;;;8.40;99.90;;;;;;5014386;28;20025;-77
2023/02/24 04:43:14;;;;;;;121.15;61.42;;;8.40;99.90;;;;;;5032391;28;20485;-77
2023/02/24 04:45:40;;;;;;;114.05;59.95;;;8.40;99.90;;;;;;5031896;28;20025;-76
2023/02/24 04:48:11;;;;;;;116.38;64.28;;;8.40;99.90;;;;;;5032087;28;20022;-77
2023/02/24 04:50:39;;;;;;;115.73;60.90;;;8.50;99.90;;;;;;5031955;28;20512;-76
2023/02/24 04:53:11;;;;;;;115.30;63.28;;;8.50;99.90;;;;;;5028400;28;20022;-77
2023/02/24 04:55:39;;;;;;;113.03;62.55;;;8.40;99.90;;;;;;5031831;28;20037;-76
2023/02/24 04:58:13;;;;;;;114.28;62.55;;;8.40;99.90;;;;;;5031790;28;20028;-76
2023/02/24 05:00:40;;;;;;;117.90;64.03;;;8.40;99.90;;;;;;5025284;28;20068;-76
2023/02/24 05:03:09;;;;;;;123.15;64.85;;;8.40;99.90;;;;;;5028347;28;20100;-77
2023/02/24 05:05:35;;;;;;;120.50;62.47;;;8.40;99.90;;;;;;5021960;28;20384;-77
2023/02/24 05:08:06;;;;;;;119.63;63.80;;;8.30;99.90;;;;;;5006706;28;20029;-77
2023/02/24 05:10:39;;;;;;;127.50;66.03;;;8.30;99.90;;;;;;5031356;28;20493;-77
2023/02/24 05:13:06;;;;;;;127.88;65.95;;;8.20;99.90;;;;;;5028261;28;20260;-77
2023/02/24 05:15:32;;;;;;;134.23;70.13;;;8.20;99.90;;;;;;5031840;28;20025;-77
2023/02/24 05:18:06;;;;;;;129.15;67.45;;;8.10;99.90;;;;;;5031547;28;20389;-77
2023/02/24 05:23:33;;;;;;;125.82;64.72;;;8.10;99.90;;;;;;5028435;28;20052;-76
2023/02/24 05:26:07;;;;;;;135.43;67.88;;;8.10;99.90;;;;;;5031935;28;20025;-76
2023/02/24 05:28:39;;;;;;;125.22;65.38;;;8.10;99.90;;;;;;5028793;28;20028;-77
2023/02/24 05:31:17;;;;;;;117.97;65.75;;;8.10;99.90;;;;;;5013531;28;20032;-77
2023/02/24 05:33:45;;;;;;;130.00;67.95;;;8.20;99.90;;;;;;5029044;28;20021;-77
2023/02/24 05:36:16;;;;;;;122.75;64.85;;;8.20;99.90;;;;;;5031688;28;20028;-77
2023/02/24 05:38:45;;;;;;;126.82;67.68;;;8.20;99.90;;;;;;5027638;28;20492;-77
2023/02/24 05:41:16;;;;;;;123.93;64.20;;;8.20;99.90;;;;;;5031430;28;20025;-76
2023/02/24 05:43:56;;;;;;;130.95;63.33;;;8.20;99.90;;;;;;5031462;28;20031;-77
2023/02/24 05:46:26;;;;;;;132.65;68.88;;;8.20;99.90;;;;;;5029731;28;20385;-77
2023/02/24 05:48:57;;;;;;;139.50;68.38;;;8.10;99.90;;;;;;5021551;28;20037;-77
2023/02/24 05:51:24;;;;;;;130.23;65.85;;;8.10;99.90;;;;;;5031322;28;20036;-77
2023/02/24 05:53:54;;;;;;;123.45;64.82;;;8.20;99.90;;;;;;5031429;28;20052;-77
2023/02/24 05:56:21;;;;;;;132.80;67.05;;;8.10;99.90;;;;;;5031222;28;20156;-77
2023/02/24 05:58:48;;;;;;;130.75;66.03;;;8.10;99.90;;;;;;5018772;28;20133;-77
2023/02/24 06:01:15;;;;;;;127.75;69.53;;;8.20;99.90;;;;;;5007565;28;20061;-77
2023/02/24 06:03:48;;;;;;;142.13;69.70;;;8.20;99.90;;;;;;5006471;28;20036;-76
2023/02/24 06:06:16;;;;;;;129.82;66.03;;;8.20;99.90;;;;;;5008149;28;20242;-77
2023/02/24 06:08:49;;;;;;;132.48;66.60;;;8.30;99.90;;;;;;5011579;28;20033;-76
2023/02/24 06:11:19;;;;;;;122.32;64.65;;;8.30;99.90;;;;;;5018019;28;20034;-77
2023/02/24 06:13:49;;;;;;;121.45;65.10;;;8.30;99.90;;;;;;5011565;28;20084;-77
2023/02/24 06:16:16;;;;;;;134.05;64.63;;;8.40;99.90;;;;;;5018667;28;20121;-77
2023/02/24 06:18:46;;;;;;;121.13;64.00;;;8.40;99.90;;;;;;5010099;28;20026;-77
2023/02/24 06:21:11;;;;;;;128.35;64.90;;;8.40;99.90;;;;;;5011683;28;20033;-77
2023/02/24 06:23:38;;;;;;;125.90;65.10;;;8.40;99.90;;;;;;5020577;28;20087;-76
2023/02/24 06:26:11;;;;;;;127.88;66.63;;;8.40;99.90;;;;;;5013046;28;20531;-77
2023/02/24 06:28:38;;;;;;;126.10;68.35;;;8.40;99.90;;;;;;5014688;28;20033;-77
2023/02/24 06:31:05;;;;;;;126.70;66.38;;;8.40;99.90;;;;;;5015787;28;20038;-77
2023/02/24 06:33:33;;;;;;;134.02;67.45;;;8.40;99.90;;;;;;5011376;28;20524;-77
2023/02/24 06:35:59;;;;;;;126.30;67.10;;;8.40;99.90;;;;;;5015631;28;20037;-76
2023/02/24 06:38:25;;;;;;;132.60;69.07;;;8.50;99.90;;;;;;5015874;28;20113;-77
2023/02/24 06:40:51;;;;;;;129.25;67.80;;;8.40;99.90;;;;;;5015624;28;20853;-77
2023/02/24 06:43:18;;;;;;;133.73;68.40;;;8.50;99.90;;;;;;5015980;28;20026;-76
2023/02/24 06:45:44;;;;;;;128.15;69.47;;;8.50;99.90;;;;;;5015581;28;20026;-76
2023/02/24 06:48:10;;;;;;;130.35;68.40;;;8.60;99.90;;;;;;5015574;28;20036;-77
2023/02/24 06:50:36;;;;;;;137.38;69.63;;;8.60;99.90;;;;;;5014229;28;20037;-78
2023/02/24 06:53:02;;;;;;;130.23;68.25;;;8.60;99.90;;;;;;5012821;28;20160;-78
2023/02/24 06:55:28;;;;;;;136.20;70.30;;;8.70;99.90;;;;;;5013848;28;20105;-78
2023/02/24 06:58:02;;;;;;;138.30;69.45;;;8.70;99.90;;;;;;5014053;28;20026;-78
2023/02/24 07:00:35;;;;;;;134.15;69.28;;;8.70;99.90;;;;;;5033088;28;20463;-78
2023/02/24 07:03:23;;;;;;;136.73;69.85;;;8.80;99.90;;;;;;5025345;28;20500;-78
2023/02/24 07:05:53;;;;;;;127.57;68.57;;;8.80;99.90;;;;;;5031113;28;20109;-78
2023/02/24 07:08:26;;;;;;;127.78;68.32;;;8.80;99.90;;;;;;5035074;28;20493;-78
2023/02/24 07:10:56;;;;;;;132.95;68.95;;;8.90;99.90;;;;;;5017343;28;20033;-78
2023/02/24 07:13:24;;;;;;;124.95;67.57;;;8.90;99.90;;;;;;5034901;28;20485;-78
2023/02/24 07:15:50;;;;;;;132.95;71.82;;;8.90;99.90;;;;;;5017254;28;20048;-78
2023/02/24 07:18:17;;;;;;;130.25;70.40;;;8.90;99.90;;;;;;5017369;28;20109;-78
2023/02/24 07:20:45;;;;;;;132.55;69.78;;;8.90;99.90;;;;;;5034994;28;20022;-79
2023/02/24 07:23:15;;;;;;;143.18;73.68;;;9.00;99.90;;;;;;5017307;28;20021;-78
2023/02/24 07:25:45;;;;;;;143.63;74.40;;;9.00;99.90;;;;;;5034913;28;20053;-79
2023/02/24 07:28:11;;;;;;;144.82;74.85;;;9.00;99.90;;;;;;5017231;28;20108;-79
2023/02/24 07:30:41;;;;;;;137.30;72.70;;;9.10;99.90;;;;;;5016900;28;20032;-78
2023/02/24 07:33:07;;;;;;;136.10;73.75;;;9.10;99.90;;;;;;5034485;28;20045;-78
2023/02/24 07:35:36;;;;;;;150.90;75.88;;;9.10;99.90;;;;;;5022957;28;20026;-78
2023/02/24 07:38:04;;;;;;;141.23;72.72;;;9.20;99.90;;;;;;5034794;28;20025;-78
2023/02/24 07:40:32;;;;;;;133.40;71.85;;;9.20;99.90;;;;;;5034513;28;20117;-78
2023/02/24 07:43:02;;;;;;;143.68;74.65;;;9.20;99.90;;;;;;5033304;28;20026;-78
2023/02/24 07:45:28;;;;;;;139.75;74.40;;;9.20;99.90;;;;;;5034699;28;20078;-78
2023/02/24 07:47:54;;;;;;;154.98;76.70;;;9.30;99.90;;;;;;5034538;28;20060;-78
2023/02/24 07:50:20;;;;;;;143.88;75.45;;;9.30;99.90;;;;;;5034529;28;20116;-78
2023/02/24 07:52:47;;;;;;;141.27;74.57;;;9.40;99.90;;;;;;5034704;28;20224;-78
2023/02/24 07:55:14;;;;;;;145.32;74.28;;;9.40;99.90;;;;;;5022962;28;20022;-78
2023/02/24 07:57:45;;;;;;;149.05;75.45;;;9.40;99.90;;;;;;5034570;28;20524;-78
2023/02/24 08:00:19;;;;;;;148.23;76.93;;;9.50;99.90;;;;;;5029256;28;20061;-78
2023/02/24 08:02:49;;;;;;;136.43;72.20;;;9.50;99.90;;;;;;5027144;28;20029;-78
2023/02/24 08:05:20;;;;;;;142.20;76.97;;;9.60;99.90;;;;;;5034323;28;20040;-78
2023/02/24 08:07:48;;;;;;;145.73;76.47;;;9.60;99.90;;;;;;5034275;28;20032;-77
2023/02/24 08:10:24;;;;;;;158.32;80.00;;;9.50;99.90;;;;;;5032771;28;20033;-78
2023/02/24 08:12:55;;;;;;;143.18;73.22;;;9.60;99.90;;;;;;5033713;28;20504;-77
2023/02/24 08:15:25;;;;;;;137.40;73.03;;;9.60;99.90;;;;;;5032794;28;20025;-76
2023/02/24 08:17:59;;;;;;;142.00;76.15;;;9.70;99.90;;;;;;5014893;28;20393;-77
2023/02/24 08:20:51;;;;;;;140.50;75.50;;;9.70;99.90;;;;;;5032612;28;20025;-76
2023/02/24 08:23:13;;;;;;;137.65;75.18;;;9.70;99.90;;;;;;5030089;28;20033;-77
2023/02/24 08:25:43;;;;;;;146.30;76.25;;;9.70;99.90;;;;;;5032797;28;20029;-77
2023/02/24 08:28:10;;;;;;;141.88;75.57;;;9.80;99.90;;;;;;5029022;28;20024;-77
2023/02/24 08:30:39;;;;;;;155.23;78.75;;;9.80;99.90;;;;;;5032537;28;20021;-77
2023/02/24 08:33:14;;;;;;;137.10;75.93;;;9.80;99.90;;;;;;5031496;28;20080;-76
2023/02/24 08:35:43;;;;;;;147.52;78.38;;;9.90;99.90;;;;;;5029487;28;20056;-77
2023/02/24 08:38:21;;;;;;;154.15;82.28;;;10.00;99.90;;;;;;5032210;28;20109;-77
2023/02/24 08:40:50;;;;;;;145.43;78.32;;;10.00;99.90;;;;;;5029209;28;20018;-76
2023/02/24 08:46:19;;;;;;;162.15;83.20;;;10.10;99.90;;;;;;5031668;28;20038;-77
2023/02/24 08:48:54;;;;;;;167.18;87.45;;;10.20;99.90;;;;;;5024931;28;20496;-77
2023/02/24 08:51:27;;;;;;;160.05;81.57;;;10.20;99.90;;;;;;5032130;28;20473;-77
2023/02/24 08:54:02;;;;;;;163.65;82.32;;;10.30;99.90;;;;;;5032462;28;20026;-77
2023/02/24 08:56:33;;;;;;;165.05;85.43;;;10.20;99.90;;;;;;5011534;28;20018;-77
2023/02/24 08:59:04;;;;;;;179.93;89.95;;;10.30;99.90;;;;;;5031701;28;20075;-77
2023/02/24 09:01:37;;;;;;;196.02;95.70;;;10.30;99.90;;;;;;5014342;28;20064;-77
2023/02/24 09:04:17;;;;;;;180.70;93.05;;;10.30;99.90;;;;;;5029040;28;20466;-76
2023/02/24 09:06:47;;;;;;;196.60;99.30;;;10.30;99.90;;;;;;5032212;28;20033;-76
2023/02/24 09:09:16;;;;;;;193.98;96.43;;;10.30;99.90;;;;;;5031952;28;20078;-77
2023/02/24 09:11:48;;;;;;;199.18;97.93;;;10.40;99.90;;;;;;5031949;28;20036;-77
2023/02/24 09:14:16;;;;;;;196.63;97.43;;;10.40;99.90;;;;;;5028462;28;20083;-76
2023/02/24 09:17:00;;;;;;;193.52;98.13;;;10.40;99.90;;;;;;5031843;28;20022;-77
2023/02/24 09:19:39;;;;;;;194.25;95.47;;;10.50;99.90;;;;;;5010295;28;20025;-77
2023/02/24 09:22:30;;;;;;;191.80;97.20;;;10.50;99.90;;;;;;5031904;28;20366;-77
2023/02/24 09:25:16;;;;;;;182.80;93.57;;;10.50;99.90;;;;;;5023632;28;20044;-76
2023/02/24 09:27:41;;;;;;;181.50;93.68;;;10.50;99.90;;;;;;5031685;28;20036;-77
2023/02/24 09:30:24;;;;;;;169.85;88.13;;;10.40;99.90;;;;;;5027605;28;20018;-77
2023/02/24 09:32:59;;;;;;;175.90;89.32;;;10.40;99.90;;;;;;5023859;28;20028;-76
2023/02/24 09:35:35;;;;;;;175.25;88.35;;;10.40;99.90;;;;;;5014035;28;20116;-77
2023/02/24 09:38:04;;;;;;;182.65;89.57;;;10.50;99.90;;;;;;5028705;28;20033;-76
2023/02/24 09:40:38;;;;;;;183.25;90.78;;;10.60;99.90;;;;;;5013900;28;20030;-77
2023/02/24 09:43:16;;;;;;;176.07;88.90;;;10.60;99.90;;;;;;5028021;28;20036;-77
2023/02/24 09:45:52;;;;;;;178.73;91.10;;;10.70;99.90;;;;;;5031613;28;20026;-77
2023/02/24 09:48:23;;;;;;;189.77;92.35;;;10.70;99.90;;;;;;5028715;28;20072;-76
2023/02/24 09:51:04;;;;;;;181.90;91.28;;;10.80;99.90;;;;;;5031493;28;20036;-77
2023/02/24 09:53:41;;;;;;;180.15;94.57;;;10.90;99.90;;;;;;5019273;28;20489;-77
2023/02/24 09:56:21;;;;;;;186.95;94.53;;;11.00;99.90;;;;;;5017986;28;20026;-77
2023/02/24 09:59:10;;;;;;;185.30;95.32;;;11.10;99.90;;;;;;5035339;28;20053;-77
2023/02/24 10:02:05;;;;;;;185.88;95.30;;;11.10;99.90;;;;;;5030636;28;20176;-77
2023/02/24 10:05:05;;;;;;;196.77;100.10;;;11.20;99.90;;;;;;4994573;28;20038;-77
2023/02/24 10:07:39;;;;;;;204.45;99.97;;;11.20;99.90;;;;;;5017043;28;20048;-77
2023/02/24 10:11:05;;;;;;;188.73;96.13;;;11.10;99.90;;;;;;5031506;28;20466;-77
2023/02/24 10:13:12;;;;;;;189.45;98.10;;;11.10;99.90;;;;;;5023716;28;20072;-76
2023/02/24 10:18:26;;;;;;;182.75;97.95;;;11.00;99.90;;;;;;5034613;28;20663;-77
2023/02/24 10:20:55;;;;;;;194.05;96.65;;;11.00;99.90;;;;;;5017264;28;20520;-77
2023/02/24 10:24:13;;;;;;;190.70;98.63;;;11.10;99.90;;;;;;5035026;28;20028;-76
2023/02/24 10:26:53;;;;;;;185.48;97.95;;;11.20;99.90;;;;;;4988347;28;20033;-77
2023/02/24 10:29:28;;;;;;;188.38;96.22;;;11.30;99.90;;;;;;5032613;28;20026;-77
2023/02/24 10:32:32;;;;;;;178.95;96.50;;;11.40;99.90;;;;;;5030574;28;20022;-77
2023/02/24 10:34:59;;;;;;;179.68;92.80;;;11.50;99.90;;;;;;5015330;28;20040;-77
2023/02/24 10:37:27;;;;;;;178.27;93.40;;;11.60;99.90;;;;;;5034724;28;20128;-77
2023/02/24 10:40:08;;;;;;;178.43;89.38;;;11.70;99.90;;;;;;5013389;28;20030;-77
2023/02/24 10:42:36;;;;;;;174.18;89.15;;;11.70;99.90;;;;;;5005544;28;20030;-77
2023/02/24 10:45:16;;;;;;;173.25;87.47;;;11.70;99.90;;;;;;5034759;28;20136;-77
2023/02/24 10:47:48;;;;;;;170.60;87.35;;;11.70;99.90;;;;;;5034345;28;20460;-77
2023/02/24 10:50:43;;;;;;;175.85;87.65;;;11.80;99.90;;;;;;5025537;28;20091;-76
2023/02/24 10:53:25;;;;;;;171.45;86.32;;;11.80;99.90;;;;;;5015232;28;20048;-76
2023/02/24 10:56:00;;;;;;;;;;;11.90;99.90;;;;;;5014925;28;20441;-77
2023/02/24 10:58:43;;;;;;;166.25;90.47;;;12.10;99.90;;;;;;5018153;28;19913;-77
2023/02/24 11:01:19;;;;;;;163.38;88.40;;;12.20;99.90;;;;;;5010862;28;20022;-77
2023/02/24 11:04:00;;;;;;;161.68;83.53;;;12.20;99.90;;;;;;5010696;28;20084;-77
2023/02/24 11:06:40;;;;;;;161.50;84.22;;;12.20;99.90;;;;;;5011047;28;20052;-77
2023/02/24 11:18:05;;;;;;;155.18;82.68;;;12.30;99.90;;;;;;5010516;28;20080;-77
2023/02/24 11:20:34;;;;;;;168.10;81.95;;;12.30;99.90;;;;;;5012604;28;20111;-77
2023/02/24 11:23:07;;;;;;;168.38;83.82;;;12.40;99.90;;;;;;5014126;28;20034;-77
2023/02/24 11:25:38;;;;;;;160.43;80.68;;;12.40;99.90;;;;;;5009919;28;20132;-77
2023/02/24 11:28:23;;;;;;;172.27;82.50;;;12.50;99.90;;;;;;5014789;28;20046;-77
2023/02/24 11:31:02;;;;;;;159.05;80.63;;;12.40;99.90;;;;;;5008388;28;20253;-76
2023/02/24 11:33:50;;;;;;;159.98;79.45;;;12.50;99.90;;;;;;5009065;28;20069;-76
2023/02/24 11:36:42;;;;;;;154.55;81.25;;;12.50;99.90;;;;;;5026525;28;20029;-77
2023/02/24 11:39:23;;;;;;;152.07;82.32;;;12.50;99.90;;;;;;5026909;28;20026;-76
2023/02/24 11:41:54;;;;;;;156.88;80.55;;;12.50;99.90;;;;;;5010772;28;20034;-77
2023/02/24 11:44:34;;;;;;;156.80;79.38;;;12.60;99.90;;;;;;5012835;28;20037;-77
2023/02/24 11:47:17;;;;;;;150.00;77.60;;;12.70;99.90;;;;;;5011103;28;20033;-77
2023/02/24 11:49:47;;;;;;;164.43;80.20;;;12.60;99.90;;;;;;5009122;28;20026;-77
2023/02/24 11:52:27;;;;;;;161.75;81.72;;;12.60;99.90;;;;;;5013969;28;20084;-77
2023/02/24 11:54:55;;;;;;;169.88;83.65;;;12.50;99.90;;;;;;5010902;28;20359;-77
2023/02/24 11:57:37;;;;;;;155.82;79.90;;;12.60;99.90;;;;;;5013770;28;20474;-77
2023/02/24 12:00:19;;;;;;;155.90;78.95;;;12.70;99.90;;;;;;5027648;28;20764;-77
2023/02/24 12:03:21;;;;;;;159.73;80.05;;;12.70;99.90;;;;;;5026088;28;20155;-77
2023/02/24 12:05:48;;;;;;;;;;;12.70;99.90;;;;;;5032301;28;20021;-76
2023/02/24 12:08:23;;;;;;;160.50;81.07;;;12.80;99.90;;;;;;5012442;28;19901;-77
2023/02/24 12:11:17;;;;;;;167.05;84.70;;;13.00;99.90;;;;;;5033144;28;20099;-76
2023/02/24 12:14:23;;;;;;;153.32;78.13;;;13.10;99.90;;;;;;4996785;28;20056;-77
2023/02/24 12:16:57;;;;;;;151.48;80.65;;;13.20;99.90;;;;;;5030131;28;20053;-77
2023/02/24 12:19:36;;;;;;;145.07;77.05;;;13.20;99.90;;;;;;5023463;28;20025;-77
2023/02/24 12:22:10;;;;;;;143.20;77.03;;;13.20;99.90;;;;;;5032509;28;20026;-77
2023/02/24 12:24:46;;;;;;;151.60;77.10;;;13.30;99.90;;;;;;5029410;28;20030;-77
2023/02/24 12:27:42;;;;;;;141.80;75.38;;;13.10;99.90;;;;;;5032920;28;20017;-77
2023/02/24 12:31:01;;;;;;;146.25;78.25;;;13.10;99.90;;;;;;5032536;28;20079;-77
2023/02/24 12:33:48;;;;;;;147.40;78.43;;;13.00;99.90;;;;;;4988531;28;20128;-77
2023/02/24 12:36:42;;;;;;;152.27;77.28;;;13.10;99.90;;;;;;5044299;28;20083;-76
2023/02/24 12:39:08;;;;;;;145.57;72.65;;;13.10;99.90;;;;;;5028311;28;20064;-77
2023/02/24 12:41:56;;;;;;;146.45;72.53;;;13.20;99.90;;;;;;5032596;28;20053;-76
2023/02/24 12:44:56;;;;;;;147.77;74.55;;;13.20;99.90;;;;;;5030633;28;20068;-77
2023/02/24 12:47:31;;;;;;;141.68;73.20;;;13.10;99.90;;;;;;5005812;28;20043;-77
2023/02/24 12:49:56;;;;;;;154.20;76.57;;;13.10;99.90;;;;;;5032401;28;20029;-76
2023/02/24 12:52:37;;;;;;;148.00;76.32;;;13.10;99.90;;;;;;5032221;28;20397;-77
2023/02/24 12:55:18;;;;;;;150.38;74.05;;;13.10;99.90;;;;;;5028954;28;20032;-77
2023/02/24 12:57:48;;;;;;;150.13;77.35;;;13.10;99.90;;;;;;5032413;28;20026;-77
2023/02/24 13:00:46;;;;;;;148.75;78.25;;;13.10;99.90;;;;;;5032070;28;20501;-77
2023/02/24 13:03:20;;;;;;;152.63;75.63;;;13.10;99.90;;;;;;5031244;28;20128;-76
2023/02/24 13:06:04;;;;;;;148.23;76.63;;;13.10;99.90;;;;;;5032364;28;20064;-76
2023/02/24 13:08:50;;;;;;;151.18;76.13;;;13.10;99.90;;;;;;5029683;28;20091;-77
2023/02/24 13:11:26;;;;;;;144.88;75.57;;;13.10;99.90;;;;;;5029217;28;20040;-77
2023/02/24 13:14:08;;;;;;;143.68;75.43;;;13.00;99.90;;;;;;5031955;28;20026;-76
2023/02/24 13:16:35;;;;;;;142.43;75.47;;;13.00;99.90;;;;;;5031965;28;20018;-77
2023/02/24 13:19:24;;;;;;;143.23;74.75;;;13.10;99.90;;;;;;5032132;28;20105;-76
2023/02/24 13:22:10;;;;;;;152.68;75.70;;;13.10;99.90;;;;;;5028304;28;20063;-77